createdAt,value
2023-04-14T00:00:16.218Z,77.1
2023-04-14T00:05:51.713Z,77
2023-04-14T00:11:27.941Z,77.2
2023-04-14T00:17:06.129Z,77.1
2023-04-14T00:22:42.728Z,77
2023-04-14T00:28:18.440Z,77.1
2023-04-14T00:33:54.082Z,77.1
2023-04-14T00:39:30.329Z,77.2
2023-04-14T00:45:05.488Z,77.1
2023-04-14T00:50:41.896Z,77.1
2023-04-14T00:56:17.964Z,77.1
2023-04-14T01:01:54.192Z,77.1
2023-04-14T01:07:33.895Z,77.1
2023-04-14T01:13:10.521Z,76.1
2023-04-14T01:18:46.905Z,76.2
2023-04-14T01:24:23.096Z,76.4
2023-04-14T01:29:59.353Z,76.3
2023-04-14T01:35:34.892Z,76.2
2023-04-14T01:41:10.412Z,76.6
2023-04-14T01:46:49.487Z,76.5
2023-04-14T01:52:28.085Z,76.3
2023-04-14T01:58:06.336Z,76.1
2023-04-14T02:03:42.120Z,76.3
2023-04-14T02:09:19.699Z,76.2
2023-04-14T02:14:55.108Z,76.4
2023-04-14T02:20:30.651Z,76.7
2023-04-14T02:26:06.007Z,76.5
2023-04-14T02:31:41.908Z,76.6
2023-04-14T02:37:17.851Z,76.4
2023-04-14T02:42:54.048Z,76.2
2023-04-14T02:48:30.348Z,76.3
2023-04-14T02:54:27.269Z,76.2
2023-04-14T03:00:00.324Z,76.4
2023-04-14T03:05:35.757Z,76.3
2023-04-14T03:11:11.231Z,76.2
2023-04-14T03:16:46.408Z,76
2023-04-14T03:22:21.878Z,75.8
2023-04-14T03:27:57.441Z,75.9
2023-04-14T03:33:33.425Z,76
2023-04-14T03:39:09.582Z,75.8
2023-04-14T03:44:44.991Z,75.7
2023-04-14T03:50:21.519Z,75.8
2023-04-14T03:56:18.248Z,75.8
2023-04-14T04:01:52.100Z,75.9
2023-04-14T04:07:29.373Z,75.6
2023-04-14T04:13:08.341Z,75.7
2023-04-14T04:18:45.216Z,75.7
2023-04-14T04:24:21.567Z,75.7
2023-04-14T04:29:57.734Z,75.5
2023-04-14T04:35:35.004Z,75.6
2023-04-14T04:41:10.159Z,75.3
2023-04-14T04:46:46.578Z,75.4
2023-04-14T04:52:22.230Z,75.4
2023-04-14T04:57:57.801Z,75.5
2023-04-14T05:03:33.926Z,75.5
2023-04-14T05:09:09.347Z,75.8
2023-04-14T05:14:46.286Z,76
2023-04-14T05:20:21.852Z,76.1
2023-04-14T05:26:26.773Z,76
2023-04-14T05:32:51.717Z,76
2023-04-14T05:38:28.450Z,76.1
2023-04-14T05:44:04.974Z,78
2023-04-14T05:49:40.081Z,80.7
2023-04-14T05:55:37.667Z,81.2
2023-04-14T06:01:10.655Z,81.7
2023-04-14T06:06:46.017Z,83.3
2023-04-14T06:12:22.436Z,83.2
2023-04-14T06:17:59.591Z,82.1
2023-04-14T06:23:35.103Z,82
2023-04-14T06:29:11.641Z,80.9
2023-04-14T06:34:49.093Z,81.2
2023-04-14T06:40:28.269Z,81.2
2023-04-14T06:46:05.178Z,81.5
2023-04-14T06:51:40.841Z,79.9
2023-04-14T06:57:17.301Z,81.7
2023-04-14T07:02:52.833Z,82.2
2023-04-14T07:08:29.993Z,83.4
2023-04-14T07:14:06.162Z,83.6
2023-04-14T07:19:41.216Z,84.1
2023-04-14T07:25:17.697Z,83.2
2023-04-14T07:30:54.127Z,82.4
2023-04-14T07:36:30.049Z,82.4
2023-04-14T07:42:05.979Z,82.2
2023-04-14T07:47:42.596Z,80.4
2023-04-14T07:53:42.784Z,78.7
2023-04-14T07:59:16.966Z,77.8
2023-04-14T08:04:52.215Z,76.4
2023-04-14T08:10:28.008Z,78.4
2023-04-14T08:16:05.001Z,78
2023-04-14T08:21:40.957Z,73.5
2023-04-14T08:27:17.990Z,77.1
2023-04-14T08:32:59.372Z,79.4
2023-04-14T08:38:35.656Z,78.2
2023-04-14T08:44:11.888Z,73.8
2023-04-14T08:49:47.949Z,77
2023-04-14T08:55:45.764Z,75.4
2023-04-14T09:01:19.205Z,75.8
2023-04-14T09:06:56.888Z,74.3
2023-04-14T09:12:33.489Z,74.6
2023-04-14T09:18:09.910Z,73.3
2023-04-14T09:23:46.846Z,75.3
2023-04-14T09:29:22.759Z,72.3
2023-04-14T09:34:59.159Z,75.1
2023-04-14T09:40:34.779Z,74.3
2023-04-14T09:46:11.649Z,73.4
2023-04-14T09:51:48.304Z,76.2
2023-04-14T09:57:23.818Z,78.2
2023-04-14T10:03:00.797Z,77.1
2023-04-14T10:08:38.825Z,76.3
2023-04-14T10:14:13.943Z,75.7
2023-04-14T10:19:49.210Z,75.4
2023-04-14T10:25:24.852Z,74.7
2023-04-14T10:31:00.548Z,73.2
2023-04-14T10:36:36.273Z,75.6
2023-04-14T10:42:13.641Z,74.3
2023-04-14T10:47:50.118Z,73.3
2023-04-14T10:53:47.872Z,73.2
2023-04-14T10:59:21.636Z,73.8
2023-04-14T11:04:57.741Z,69.1
2023-04-14T11:10:33.601Z,70.3
2023-04-14T11:16:09.489Z,69.9
2023-04-14T11:21:45.911Z,69.3
2023-04-14T11:27:22.297Z,65.1
2023-04-14T11:32:58.744Z,64
2023-04-14T11:38:36.007Z,65.5
2023-04-14T11:44:11.938Z,62.6
2023-04-14T11:49:49.489Z,75.8
2023-04-14T11:55:25.775Z,76.8
2023-04-14T12:01:01.204Z,75.7
2023-04-14T12:06:36.762Z,71.8
2023-04-14T12:12:17.453Z,74.6
2023-04-14T12:17:57.489Z,74.6
2023-04-14T12:23:34.379Z,75
2023-04-14T12:29:11.541Z,77.4
2023-04-14T12:34:46.366Z,78.7
2023-04-14T12:40:23.304Z,75.6
2023-04-14T12:45:58.715Z,79.4
2023-04-14T12:51:36.119Z,76
2023-04-14T12:57:11.590Z,72.1
2023-04-14T13:02:47.724Z,67.3
2023-04-14T13:08:24.867Z,71.7
2023-04-14T13:14:00.197Z,74.1
2023-04-14T13:19:36.254Z,76.2
2023-04-14T13:25:11.876Z,77.3
2023-04-14T13:30:46.856Z,84.8
2023-04-14T13:36:22.925Z,79.6
2023-04-14T13:41:59.836Z,77.3
2023-04-14T13:47:36.230Z,72.4
2023-04-14T13:53:12.593Z,73.7
2023-04-14T13:58:48.172Z,73.9
2023-04-14T14:04:24.654Z,71.7
2023-04-14T14:10:01.930Z,71.3
2023-04-14T14:15:37.359Z,76.7
2023-04-14T14:21:12.985Z,73.6
2023-04-14T14:26:52.151Z,75.4
2023-04-14T14:32:28.649Z,75.5
2023-04-14T14:38:04.468Z,74.2
2023-04-14T14:43:42.795Z,74.4
2023-04-14T14:49:21.392Z,73.1
2023-04-14T14:54:56.939Z,72.6
2023-04-14T15:00:32.618Z,73.3
2023-04-14T15:06:09.035Z,71.8
2023-04-14T15:11:45.216Z,73.6
2023-04-14T15:17:20.688Z,69.9
2023-04-14T15:22:56.092Z,69.3
2023-04-14T15:28:31.860Z,70.2
2023-04-14T15:34:07.419Z,70.7
2023-04-14T15:39:43.134Z,71.2
2023-04-14T15:45:20.592Z,69.2
2023-04-14T15:50:56.161Z,65.1
2023-04-14T15:56:32.653Z,68
2023-04-14T16:02:08.850Z,66.9
2023-04-14T16:07:45.408Z,66.9
2023-04-14T16:13:21.719Z,69.4
2023-04-14T16:18:57.593Z,70.9
2023-04-14T16:24:33.292Z,66.2
2023-04-14T16:30:09.367Z,66.7
2023-04-14T16:35:49.059Z,64.9
2023-04-14T16:41:25.327Z,66.8
2023-04-14T16:47:01.024Z,62.9
2023-04-14T16:52:36.925Z,65.2
2023-04-14T16:58:12.633Z,66
2023-04-14T17:03:49.113Z,69.5
2023-04-14T17:09:26.353Z,71.2
2023-04-14T17:15:01.802Z,69.5
2023-04-14T17:20:37.755Z,70.4
2023-04-14T17:26:14.400Z,70.6
2023-04-14T17:31:50.084Z,70.6
2023-04-14T17:37:26.447Z,72.8
2023-04-14T17:43:01.737Z,71.5
2023-04-14T17:48:37.923Z,73.2
2023-04-14T17:54:13.948Z,77.5
2023-04-14T17:59:50.776Z,81.5
2023-04-14T18:05:29.845Z,86.3
2023-04-14T18:11:06.321Z,85.9
2023-04-14T18:16:43.054Z,84.4
2023-04-14T18:22:18.591Z,84.6
2023-04-14T18:33:40.803Z,83.5
2023-04-14T18:39:16.841Z,83.8
2023-04-14T18:44:53.250Z,85.4
2023-04-14T18:50:29.850Z,85.1
2023-04-14T18:56:07.439Z,85.7
2023-04-14T19:01:47.366Z,86.5
2023-04-14T19:07:23.422Z,86.6
2023-04-14T19:12:59.742Z,85.9
2023-04-14T19:18:34.848Z,86.1
2023-04-14T19:24:11.357Z,86.4
2023-04-14T19:29:46.801Z,87.1
2023-04-14T19:35:21.963Z,86.9
2023-04-14T19:40:58.031Z,88.7
2023-04-14T19:46:33.950Z,88.5
2023-04-14T19:52:10.722Z,87.9
2023-04-14T19:57:47.566Z,87.6
2023-04-14T20:03:23.627Z,87.6
2023-04-14T20:09:01.430Z,87.4
2023-04-14T20:14:41.016Z,87.3
2023-04-14T20:20:16.766Z,87
2023-04-14T20:25:51.538Z,87.2
2023-04-14T20:31:28.072Z,87.6
2023-04-14T20:37:04.605Z,87.6
2023-04-14T20:42:40.795Z,87.2
2023-04-14T20:48:16.854Z,87.7
2023-04-14T20:53:53.542Z,87.1
2023-04-14T20:59:28.874Z,86.9
2023-04-14T21:05:04.344Z,87.2
2023-04-14T21:11:17.590Z,86.8
2023-04-14T21:16:59.622Z,87.8
2023-04-14T21:22:35.797Z,88.2
2023-04-14T21:28:11.077Z,88
2023-04-14T21:33:47.928Z,87.9
2023-04-14T21:39:23.683Z,87.9
